Terminal Aerodrome Forecast
Issued by NWS

Home | Current Version | Previous Version | Graphics & Text | Print | Product List | Glossary On
Versions: 1 2 3 4 5 6 7 8 9 10 11 12 13 14 15 16 17 18 19 20 21
751
FTUS43 KICT 311720
TAFRSL
TAF
KRSL 311720Z 3118/0118 34008KT P6SM SCT025 BKN080
      TEMPO 3118/3121 BKN025
     FM312100 03008KT P6SM SCT080
     FM010300 00000KT P6SM SCT200
     FM011300 36006KT P6SM SCT250=

USA.gov is the U.S. government's official web portal to all federal, state and local government web resources and services.